Time;durP1;ratioP1;P1;durP2;ratioP2;P2;SDS_P1;SDS_P2;PMS_P1;PMS_P2;Temp;Humidity;BMP_temperature;BMP_pressure;BME280_temperature;BME280_humidity;BME280_pressure;Samples;Min_cycle;Max_cycle;Signal;HPM_P1;HPM_P2
2023/03/14 00:01:08;;;;;;;1.60;1.50;;;;;;;;;;5075366;28;20060;-90
2023/03/14 00:03:35;;;;;;;2.30;2.17;;;;;;;;;;5075499;28;20553;-90
2023/03/14 00:06:02;;;;;;;0.63;0.63;;;;;;;;;;5075581;28;20048;-89
2023/03/14 00:08:29;;;;;;;0.88;0.88;;;;;;;;;;5075227;28;20495;-89
2023/03/14 00:10:57;;;;;;;1.05;1.05;;;;;;;;;;5075691;28;20040;-90
2023/03/14 00:13:23;;;;;;;1.00;1.00;;;;;;;;;;5075588;28;20129;-90
2023/03/14 00:15:51;;;;;;;0.55;0.55;;;;;;;;;;5060097;28;20053;-90
2023/03/14 00:18:19;;;;;;;2.28;2.13;;;;;;;;;;5055306;28;20102;-89
2023/03/14 00:20:46;;;;;;;1.83;1.73;;;;;;;;;;5040421;28;20054;-89
2023/03/14 00:23:12;;;;;;;1.20;1.15;;;;;;;;;;5035347;28;20460;-89
2023/03/14 00:25:39;;;;;;;2.33;2.17;;;;;;;;;;5048242;28;20049;-89
2023/03/14 00:28:05;;;;;;;1.35;1.25;;;;;;;;;;5054421;28;20049;-89
2023/03/14 00:30:31;;;;;;;2.67;2.13;;;;;;;;;;5054761;28;20056;-89
2023/03/14 00:32:59;;;;;;;1.50;1.40;;;;;;;;;;5054601;28;20049;-89
2023/03/14 00:35:26;;;;;;;0.60;0.60;;;;;;;;;;5054857;28;20057;-89
2023/03/14 00:37:52;;;;;;;1.38;1.38;;;;;;;;;;5054722;28;20485;-90
2023/03/14 00:40:19;;;;;;;2.30;2.20;;;;;;;;;;5054624;28;20118;-89
2023/03/14 00:42:45;;;;;;;2.47;1.92;;;;;;;;;;5054844;28;20095;-89
2023/03/14 00:45:12;;;;;;;2.15;1.95;;;;;;;;;;5046452;28;20050;-89
2023/03/14 00:47:38;;;;;;;2.25;2.08;;;;;;;;;;5038179;28;20119;-89
2023/03/14 00:50:07;;;;;;;1.10;1.10;;;;;;;;;;5036479;28;20054;-89
2023/03/14 00:52:33;;;;;;;1.17;1.02;;;;;;;;;;5034305;28;20104;-89
2023/03/14 00:55:00;;;;;;;0.88;0.88;;;;;;;;;;5034430;28;20045;-89
2023/03/14 00:57:26;;;;;;;1.63;1.52;;;;;;;;;;5034361;28;20399;-89
2023/03/14 00:59:53;;;;;;;1.40;0.93;;;;;;;;;;5034352;28;20050;-89
2023/03/14 01:02:19;;;;;;;1.35;1.25;;;;;;;;;;5034657;28;20077;-90
2023/03/14 01:04:48;;;;;;;1.63;1.52;;;;;;;;;;5038003;28;20049;-89
2023/03/14 01:07:15;;;;;;;1.08;1.02;;;;;;;;;;5054357;28;20053;-89
2023/03/14 01:09:42;;;;;;;1.55;1.35;;;;;;;;;;5054170;28;20049;-90
2023/03/14 01:12:08;;;;;;;0.98;0.98;;;;;;;;;;5053975;28;20485;-90
2023/03/14 01:14:35;;;;;;;2.97;2.00;;;;;;;;;;5054190;28;20122;-90
2023/03/14 01:17:02;;;;;;;1.75;1.65;;;;;;;;;;5054455;28;20098;-90
2023/03/14 01:19:28;;;;;;;2.08;1.98;;;;;;;;;;5053929;28;20481;-89
2023/03/14 01:21:55;;;;;;;1.52;1.42;;;;;;;;;;5053992;28;20455;-90
2023/03/14 01:24:23;;;;;;;1.70;1.60;;;;;;;;;;5054309;28;20049;-90
2023/03/14 01:26:49;;;;;;;1.70;1.60;;;;;;;;;;5054083;28;20057;-90
2023/03/14 01:29:16;;;;;;;1.13;1.05;;;;;;;;;;5054125;28;20040;-89
2023/03/14 01:31:42;;;;;;;1.17;1.17;;;;;;;;;;5053578;28;20452;-90
2023/03/14 01:34:09;;;;;;;1.65;1.55;;;;;;;;;;5053993;28;20102;-90
2023/03/14 01:36:35;;;;;;;0.82;0.82;;;;;;;;;;5053891;28;20103;-89
2023/03/14 01:39:02;;;;;;;1.05;1.05;;;;;;;;;;5053848;28;20871;-90
2023/03/14 01:41:30;;;;;;;2.58;2.47;;;;;;;;;;5053458;28;20464;-89
2023/03/14 01:43:56;;;;;;;1.45;1.35;;;;;;;;;;5053472;28;20099;-89
2023/03/14 01:46:25;;;;;;;0.60;0.60;;;;;;;;;;5053476;28;20049;-90
2023/03/14 01:48:55;;;;;;;1.75;1.65;;;;;;;;;;5053594;28;20059;-89
2023/03/14 01:51:25;;;;;;;2.70;2.58;;;;;;;;;;5053460;28;20423;-90
2023/03/14 01:53:52;;;;;;;2.50;2.30;;;;;;;;;;5053749;28;20102;-90
2023/03/14 01:56:18;;;;;;;1.25;1.15;;;;;;;;;;5053517;28;20103;-89
2023/03/14 01:58:48;;;;;;;4.68;4.47;;;;;;;;;;5052721;28;20451;-90
2023/03/14 02:01:17;;;;;;;0.50;0.50;;;;;;;;;;5053306;28;20049;-90
2023/03/14 02:03:45;;;;;;;6.43;1.52;;;;;;;;;;5053220;28;20501;-90
2023/03/14 02:06:12;;;;;;;0.82;0.82;;;;;;;;;;5052963;28;20077;-90
2023/03/14 02:08:40;;;;;;;1.58;1.48;;;;;;;;;;5053271;28;20103;-90
2023/03/14 02:11:08;;;;;;;1.33;1.10;;;;;;;;;;5053067;28;20547;-89
2023/03/14 02:13:34;;;;;;;0.85;0.85;;;;;;;;;;5053071;28;20048;-90
2023/03/14 02:16:02;;;;;;;1.10;1.10;;;;;;;;;;5053474;28;20053;-90
2023/03/14 02:18:29;;;;;;;1.10;0.77;;;;;;;;;;5053068;28;20049;-90
2023/03/14 02:20:59;;;;;;;1.70;1.60;;;;;;;;;;5053156;28;20048;-90
2023/03/14 02:23:29;;;;;;;2.70;2.50;;;;;;;;;;5052812;28;20561;-90
2023/03/14 02:25:58;;;;;;;1.83;1.73;;;;;;;;;;5053011;28;20049;-89
2023/03/14 02:28:26;;;;;;;1.38;0.93;;;;;;;;;;5053023;28;20126;-89
2023/03/14 02:30:53;;;;;;;0.50;0.50;;;;;;;;;;5052364;28;20114;-89
2023/03/14 02:33:21;;;;;;;1.38;1.27;;;;;;;;;;5051705;28;20095;-89
2023/03/14 02:35:49;;;;;;;2.50;2.30;;;;;;;;;;5052940;28;20045;-90
2023/03/14 02:38:18;;;;;;;4.60;1.17;;;;;;;;;;5052836;28;20131;-89
2023/03/14 02:40:44;;;;;;;1.33;1.27;;;;;;;;;;5052755;28;20110;-90
2023/03/14 02:43:11;;;;;;;0.88;0.88;;;;;;;;;;5052729;28;20093;-89
2023/03/14 02:45:41;;;;;;;1.13;1.08;;;;;;;;;;5052898;28;20049;-90
2023/03/14 02:48:09;;;;;;;2.28;2.17;;;;;;;;;;5052398;28;20095;-89
2023/03/14 02:50:36;;;;;;;0.82;0.82;;;;;;;;;;5052397;28;20057;-90
2023/03/14 02:53:03;;;;;;;3.60;1.52;;;;;;;;;;5052490;28;20515;-90
2023/03/14 02:55:29;;;;;;;0.60;0.60;;;;;;;;;;5052274;28;20053;-89
2023/03/14 02:57:56;;;;;;;0.50;0.50;;;;;;;;;;5052585;28;20452;-90
2023/03/14 03:00:22;;;;;;;1.55;1.45;;;;;;;;;;5052664;28;20045;-90
2023/03/14 03:02:50;;;;;;;1.42;1.33;;;;;;;;;;5052303;28;20688;-89
2023/03/14 03:05:17;;;;;;;1.92;1.83;;;;;;;;;;5052293;28;20825;-89
2023/03/14 03:07:43;;;;;;;1.27;1.17;;;;;;;;;;5052490;28;20489;-89
2023/03/14 03:10:10;;;;;;;0.85;0.85;;;;;;;;;;5052465;28;20118;-90
2023/03/14 03:12:36;;;;;;;0.63;0.63;;;;;;;;;;5052447;28;20044;-90
2023/03/14 03:15:03;;;;;;;1.52;1.35;;;;;;;;;;5052178;28;20049;-89
2023/03/14 03:17:30;;;;;;;0.93;0.82;;;;;;;;;;5052295;28;20048;-89
2023/03/14 03:19:57;;;;;;;1.13;1.13;;;;;;;;;;5052203;28;20052;-89
2023/03/14 03:22:24;;;;;;;1.17;1.17;;;;;;;;;;5052405;28;20052;-90
2023/03/14 03:24:50;;;;;;;1.40;0.85;;;;;;;;;;5052145;28;20091;-89
2023/03/14 03:27:17;;;;;;;0.80;0.80;;;;;;;;;;5052299;28;20689;-90
2023/03/14 03:29:43;;;;;;;2.20;2.10;;;;;;;;;;5052391;28;20045;-90
2023/03/14 03:32:10;;;;;;;0.82;0.75;;;;;;;;;;5052305;28;20100;-90
2023/03/14 03:34:36;;;;;;;1.40;1.10;;;;;;;;;;5052547;28;20056;-90
2023/03/14 03:37:04;;;;;;;0.88;0.88;;;;;;;;;;5052172;28;20045;-90
2023/03/14 03:39:31;;;;;;;1.38;1.10;;;;;;;;;;5052386;28;20045;-90
2023/03/14 03:41:57;;;;;;;1.13;1.02;;;;;;;;;;5052034;28;20057;-90
2023/03/14 03:44:23;;;;;;;2.15;1.00;;;;;;;;;;5054732;28;20459;-90
2023/03/14 03:46:50;;;;;;;1.33;1.25;;;;;;;;;;5055983;28;20103;-90
2023/03/14 03:49:16;;;;;;;0.68;0.68;;;;;;;;;;5055546;28;20049;-90
2023/03/14 03:51:43;;;;;;;1.23;1.17;;;;;;;;;;5055932;28;20045;-90
2023/03/14 03:54:11;;;;;;;0.28;0.28;;;;;;;;;;5055688;28;20111;-90
2023/03/14 03:56:37;;;;;;;1.50;1.40;;;;;;;;;;5055733;28;20053;-89
2023/03/14 03:59:04;;;;;;;0.82;0.82;;;;;;;;;;5055344;28;20061;-89
2023/03/14 04:01:30;;;;;;;1.45;1.35;;;;;;;;;;5055304;28;20048;-89
2023/03/14 04:03:57;;;;;;;4.00;3.80;;;;;;;;;;5055241;28;20772;-89
2023/03/14 04:06:23;;;;;;;0.85;0.85;;;;;;;;;;5055463;28;20049;-89
2023/03/14 04:08:49;;;;;;;0.75;0.75;;;;;;;;;;5055221;28;20524;-89
2023/03/14 04:11:17;;;;;;;1.08;1.05;;;;;;;;;;5055326;28;20397;-89
2023/03/14 04:13:44;;;;;;;1.00;1.00;;;;;;;;;;5055014;28;20481;-89
2023/03/14 04:16:14;;;;;;;0.45;0.43;;;;;;;;;;5055423;28;20053;-89
2023/03/14 04:18:40;;;;;;;0.50;0.43;;;;;;;;;;5054839;28;20554;-89
2023/03/14 04:21:07;;;;;;;2.80;1.45;;;;;;;;;;5055221;28;20049;-89
2023/03/14 04:23:34;;;;;;;1.17;1.10;;;;;;;;;;5054920;28;20095;-89
2023/03/14 04:26:00;;;;;;;2.28;2.08;;;;;;;;;;5054664;28;20053;-89
2023/03/14 04:28:28;;;;;;;0.98;0.98;;;;;;;;;;5055187;28;20045;-88
2023/03/14 04:30:55;;;;;;;1.52;1.27;;;;;;;;;;5054693;28;20485;-89
2023/03/14 04:33:21;;;;;;;2.10;2.00;;;;;;;;;;5054732;28;20049;-89
2023/03/14 04:35:49;;;;;;;1.42;1.33;;;;;;;;;;5054264;28;20114;-89
2023/03/14 04:38:16;;;;;;;1.33;0.70;;;;;;;;;;5034645;28;20391;-89
2023/03/14 04:40:44;;;;;;;1.23;1.08;;;;;;;;;;5034495;28;20096;-89
2023/03/14 04:43:11;;;;;;;0.98;0.98;;;;;;;;;;5034683;28;20050;-89
2023/03/14 04:45:41;;;;;;;0.88;0.88;;;;;;;;;;5034439;28;20073;-89
2023/03/14 04:48:08;;;;;;;1.90;1.80;;;;;;;;;;5034446;28;20103;-89
2023/03/14 04:50:34;;;;;;;0.95;0.95;;;;;;;;;;5034404;28;20485;-89
2023/03/14 04:53:01;;;;;;;1.33;1.23;;;;;;;;;;5034560;28;20041;-89
2023/03/14 04:55:27;;;;;;;0.88;0.88;;;;;;;;;;5034247;28;20046;-89
2023/03/14 04:57:54;;;;;;;0.90;0.90;;;;;;;;;;5034334;28;20072;-89
2023/03/14 05:00:20;;;;;;;3.17;1.30;;;;;;;;;;5034243;28;20096;-89
2023/03/14 05:02:48;;;;;;;1.02;0.93;;;;;;;;;;5034594;28;20115;-89
2023/03/14 05:05:15;;;;;;;0.63;0.60;;;;;;;;;;5034425;28;20103;-89
2023/03/14 05:07:41;;;;;;;1.33;1.30;;;;;;;;;;5034926;28;20041;-90
2023/03/14 05:10:08;;;;;;;0.93;0.93;;;;;;;;;;5034075;28;20053;-89
2023/03/14 05:12:35;;;;;;;0.50;0.50;;;;;;;;;;5034494;28;20521;-90
2023/03/14 05:15:01;;;;;;;1.10;1.10;;;;;;;;;;5034614;28;20049;-90
2023/03/14 05:17:28;;;;;;;1.38;1.38;;;;;;;;;;5034125;28;20050;-89
2023/03/14 05:19:55;;;;;;;0.70;0.70;;;;;;;;;;5034349;28;20045;-90
2023/03/14 05:22:22;;;;;;;0.55;0.55;;;;;;;;;;5034269;28;20440;-90
2023/03/14 05:24:48;;;;;;;0.68;0.68;;;;;;;;;;5034241;28;20049;-89
2023/03/14 05:27:15;;;;;;;1.30;0.82;;;;;;;;;;5034118;28;20045;-90
2023/03/14 05:29:41;;;;;;;4.53;0.90;;;;;;;;;;5033873;28;20456;-88
2023/03/14 05:32:08;;;;;;;1.00;1.00;;;;;;;;;;5033471;28;20049;-89
2023/03/14 05:34:34;;;;;;;1.75;1.63;;;;;;;;;;5036270;28;20071;-88
2023/03/14 05:37:02;;;;;;;2.47;2.28;;;;;;;;;;5051924;28;20041;-88
2023/03/14 05:39:29;;;;;;;1.52;1.42;;;;;;;;;;5052821;28;20057;-88
2023/03/14 05:41:55;;;;;;;2.17;1.98;;;;;;;;;;5052846;28;20115;-88
2023/03/14 05:44:22;;;;;;;2.28;2.17;;;;;;;;;;5052881;28;20502;-88
2023/03/14 05:46:49;;;;;;;0.43;0.38;;;;;;;;;;5047397;28;20099;-89
2023/03/14 05:49:15;;;;;;;1.60;1.20;;;;;;;;;;5032763;28;20563;-89
2023/03/14 05:51:42;;;;;;;2.40;2.30;;;;;;;;;;5036662;28;20106;-88
2023/03/14 05:54:09;;;;;;;1.33;1.23;;;;;;;;;;5053009;28;20094;-89
2023/03/14 05:56:36;;;;;;;0.93;0.85;;;;;;;;;;5052651;28;20044;-89
2023/03/14 05:59:03;;;;;;;1.10;1.08;;;;;;;;;;5052763;28;20060;-89
2023/03/14 06:01:29;;;;;;;1.25;1.08;;;;;;;;;;5051360;28;20049;-89
2023/03/14 06:03:56;;;;;;;0.88;0.88;;;;;;;;;;5033148;28;20053;-89
2023/03/14 06:06:22;;;;;;;1.95;1.85;;;;;;;;;;5049516;28;20094;-89
2023/03/14 06:08:49;;;;;;;2.55;2.33;;;;;;;;;;5053146;28;20057;-89
2023/03/14 06:11:17;;;;;;;2.25;2.08;;;;;;;;;;5052752;28;20139;-90
2023/03/14 06:13:44;;;;;;;1.65;1.55;;;;;;;;;;5052330;28;20053;-89
2023/03/14 06:16:10;;;;;;;0.98;0.70;;;;;;;;;;5052352;28;20099;-89
2023/03/14 06:18:37;;;;;;;1.80;1.70;;;;;;;;;;5052651;28;20098;-89
2023/03/14 06:21:03;;;;;;;1.20;1.17;;;;;;;;;;5052745;28;20049;-89
2023/03/14 06:23:30;;;;;;;1.50;1.27;;;;;;;;;;5052667;28;20049;-89
2023/03/14 06:25:56;;;;;;;2.88;2.15;;;;;;;;;;5052964;28;20045;-89
2023/03/14 06:28:24;;;;;;;1.17;1.13;;;;;;;;;;5052550;28;20049;-89
2023/03/14 06:30:51;;;;;;;2.05;1.95;;;;;;;;;;5052697;28;20049;-89
2023/03/14 06:33:17;;;;;;;1.80;1.70;;;;;;;;;;5052779;28;20049;-89
2023/03/14 06:35:44;;;;;;;1.90;1.80;;;;;;;;;;5052426;28;20040;-89
2023/03/14 06:38:11;;;;;;;2.33;2.22;;;;;;;;;;5053037;28;20048;-89
2023/03/14 06:40:37;;;;;;;2.97;2.83;;;;;;;;;;5052095;28;20044;-89
2023/03/14 06:43:04;;;;;;;3.45;3.22;;;;;;;;;;5052621;28;20742;-90
2023/03/14 06:45:32;;;;;;;2.75;2.65;;;;;;;;;;5054822;28;20061;-89
2023/03/14 06:47:58;;;;;;;2.53;2.42;;;;;;;;;;5054128;28;20049;-89
2023/03/14 06:50:25;;;;;;;4.45;3.20;;;;;;;;;;5052541;28;20045;-90
2023/03/14 06:52:51;;;;;;;2.80;2.35;;;;;;;;;;5052793;28;20103;-89
2023/03/14 06:55:18;;;;;;;3.17;2.92;;;;;;;;;;5053086;28;20049;-89
2023/03/14 06:57:44;;;;;;;2.33;2.13;;;;;;;;;;5052629;28;20060;-89
2023/03/14 07:00:12;;;;;;;3.47;2.67;;;;;;;;;;5052853;28;20054;-90
2023/03/14 07:02:40;;;;;;;2.45;2.28;;;;;;;;;;5045348;28;20046;-89
2023/03/14 07:05:07;;;;;;;2.38;2.28;;;;;;;;;;5032494;28;20103;-90
2023/03/14 07:07:34;;;;;;;2.75;2.55;;;;;;;;;;5039541;28;20045;-90
2023/03/14 07:10:00;;;;;;;2.65;2.55;;;;;;;;;;5052568;28;20056;-89
2023/03/14 07:12:27;;;;;;;3.78;2.78;;;;;;;;;;5057763;28;20441;-90
2023/03/14 07:14:53;;;;;;;2.78;2.58;;;;;;;;;;5054386;28;20049;-90
2023/03/14 07:17:20;;;;;;;2.83;2.63;;;;;;;;;;5052683;28;20565;-90
2023/03/14 07:19:47;;;;;;;6.70;3.95;;;;;;;;;;5058233;28;20106;-90
2023/03/14 07:22:14;;;;;;;3.45;3.22;;;;;;;;;;5065068;28;20482;-90
2023/03/14 07:24:40;;;;;;;2.90;2.70;;;;;;;;;;5047347;28;20049;-90
2023/03/14 07:27:07;;;;;;;2.88;2.08;;;;;;;;;;5045427;28;20057;-90
2023/03/14 07:29:33;;;;;;;3.75;3.55;;;;;;;;;;5064648;28;20064;-90
2023/03/14 07:32:00;;;;;;;3.80;3.58;;;;;;;;;;5066439;28;20072;-91
2023/03/14 07:34:26;;;;;;;1.58;1.42;;;;;;;;;;5048297;28;20050;-90
2023/03/14 07:36:54;;;;;;;2.78;2.45;;;;;;;;;;5044029;28;20046;-90
2023/03/14 07:39:21;;;;;;;2.60;2.40;;;;;;;;;;5055469;28;20089;-89
2023/03/14 07:41:47;;;;;;;5.53;5.22;;;;;;;;;;5055687;28;20463;-90
2023/03/14 07:44:13;;;;;;;2.53;2.33;;;;;;;;;;5037246;28;20087;-90
2023/03/14 07:46:40;;;;;;;5.35;3.95;;;;;;;;;;5035807;28;20061;-90
2023/03/14 07:49:06;;;;;;;4.70;4.50;;;;;;;;;;5035335;28;20497;-90
2023/03/14 07:51:33;;;;;;;4.90;4.68;;;;;;;;;;5034943;28;20099;-90
2023/03/14 07:54:01;;;;;;;2.83;2.72;;;;;;;;;;5035444;28;20551;-90
2023/03/14 07:56:27;;;;;;;5.22;4.65;;;;;;;;;;5036752;28;20099;-90
2023/03/14 07:58:54;;;;;;;4.00;3.67;;;;;;;;;;5050472;28;20435;-90
2023/03/14 08:01:20;;;;;;;4.82;4.25;;;;;;;;;;5055263;28;20049;-90
2023/03/14 08:03:47;;;;;;;4.88;4.05;;;;;;;;;;5054961;28;20049;-90
2023/03/14 08:06:13;;;;;;;4.97;4.57;;;;;;;;;;5054920;28;20554;-90
2023/03/14 08:08:40;;;;;;;6.20;5.47;;;;;;;;;;5055364;28;20049;-90
2023/03/14 08:11:09;;;;;;;6.10;5.70;;;;;;;;;;5055150;28;20053;-90
2023/03/14 08:13:36;;;;;;;6.90;6.30;;;;;;;;;;5043152;28;20128;-90
2023/03/14 08:16:02;;;;;;;5.78;5.30;;;;;;;;;;5034827;28;20045;-90
2023/03/14 08:18:29;;;;;;;4.80;4.50;;;;;;;;;;5035175;28;20123;-91
2023/03/14 08:20:55;;;;;;;6.32;5.93;;;;;;;;;;5034829;28;20552;-91
2023/03/14 08:23:22;;;;;;;4.70;4.38;;;;;;;;;;5044327;28;20079;-90
2023/03/14 08:25:49;;;;;;;4.13;3.83;;;;;;;;;;5054988;28;20053;-91
2023/03/14 08:28:17;;;;;;;4.90;4.50;;;;;;;;;;5047362;28;20544;-90
2023/03/14 08:30:43;;;;;;;4.45;4.22;;;;;;;;;;5035876;28;20049;-91
2023/03/14 08:33:10;;;;;;;3.47;2.95;;;;;;;;;;5034789;28;20061;-90
2023/03/14 08:35:38;;;;;;;6.65;5.15;;;;;;;;;;5035426;28;20042;-91
2023/03/14 08:38:04;;;;;;;4.35;4.05;;;;;;;;;;5041244;28;20049;-91
2023/03/14 08:40:31;;;;;;;6.20;5.82;;;;;;;;;;5054879;28;20103;-91
2023/03/14 08:42:57;;;;;;;5.05;4.75;;;;;;;;;;5054393;28;20052;-91
2023/03/14 08:45:25;;;;;;;4.40;4.18;;;;;;;;;;5054772;28;20049;-90
2023/03/14 08:47:52;;;;;;;4.63;3.85;;;;;;;;;;5050716;28;20107;-91
2023/03/14 08:50:18;;;;;;;5.68;5.28;;;;;;;;;;5034463;28;20091;-91
2023/03/14 08:52:45;;;;;;;6.75;5.80;;;;;;;;;;5034923;28;20049;-90
2023/03/14 08:55:12;;;;;;;4.45;4.15;;;;;;;;;;5034660;28;20054;-91
2023/03/14 08:57:38;;;;;;;4.28;3.97;;;;;;;;;;5035133;28;20099;-90
2023/03/14 09:00:29;;;;;;;6.32;4.18;;;;;;;;;;5050865;28;20048;-91
2023/03/14 09:02:57;;;;;;;5.18;4.70;;;;;;;;;;5047729;28;20102;-89
2023/03/14 09:05:23;;;;;;;4.10;3.80;;;;;;;;;;5033433;28;20132;-89
2023/03/14 09:07:50;;;;;;;4.13;3.90;;;;;;;;;;5036294;28;20107;-90
2023/03/14 09:10:16;;;;;;;4.28;4.07;;;;;;;;;;5054186;28;20045;-90
2023/03/14 09:12:43;;;;;;;5.00;4.70;;;;;;;;;;5053897;28;20493;-90
2023/03/14 09:15:10;;;;;;;5.72;5.30;;;;;;;;;;5057154;28;20106;-91
2023/03/14 09:17:36;;;;;;;4.38;4.00;;;;;;;;;;5053230;28;20493;-91
2023/03/14 09:20:07;;;;;;;7.03;6.65;;;;;;;;;;5053844;28;20045;-91
2023/03/14 09:22:35;;;;;;;3.83;3.63;;;;;;;;;;5053602;28;20056;-90
2023/03/14 09:25:01;;;;;;;4.97;4.78;;;;;;;;;;5034007;28;20080;-91
2023/03/14 09:27:28;;;;;;;3.13;2.90;;;;;;;;;;5033845;28;20053;-92
2023/03/14 09:29:54;;;;;;;4.72;4.47;;;;;;;;;;5051802;28;20098;-90
2023/03/14 09:32:21;;;;;;;5.57;5.25;;;;;;;;;;5053239;28;20053;-91
2023/03/14 09:34:47;;;;;;;4.03;3.83;;;;;;;;;;5036124;28;20452;-91
2023/03/14 09:37:16;;;;;;;4.28;4.07;;;;;;;;;;5033602;28;20695;-92
2023/03/14 09:39:43;;;;;;;4.20;3.97;;;;;;;;;;5049969;28;20500;-92
2023/03/14 09:42:14;;;;;;;4.22;3.90;;;;;;;;;;5053259;28;20049;-93
2023/03/14 09:44:43;;;;;;;4.50;4.28;;;;;;;;;;5053701;28;20052;-91
2023/03/14 09:47:12;;;;;;;5.20;4.88;;;;;;;;;;5053281;28;20099;-93
2023/03/14 09:49:40;;;;;;;3.40;3.20;;;;;;;;;;5053632;28;20465;-92
2023/03/14 09:52:11;;;;;;;4.15;3.95;;;;;;;;;;5053242;28;20053;-92
2023/03/14 09:54:41;;;;;;;4.95;4.18;;;;;;;;;;5053260;28;20042;-92
2023/03/14 09:57:12;;;;;;;4.68;4.38;;;;;;;;;;5053124;28;20044;-93
2023/03/14 09:59:38;;;;;;;2.70;2.53;;;;;;;;;;5038541;28;20425;-91
2023/03/14 10:02:13;;;;;;;4.30;4.10;;;;;;;;;;5032960;28;20107;-92
2023/03/14 10:04:43;;;;;;;4.03;3.83;;;;;;;;;;5033101;28;20049;-91
2023/03/14 10:07:10;;;;;;;;;;;;;;;;;;5033939;28;20057;-92
2023/03/14 10:09:37;;;;;;;4.38;4.18;;;;;;;;;;5046538;28;19924;-92
2023/03/14 10:12:07;;;;;;;5.63;5.40;;;;;;;;;;5053057;28;20045;-91
2023/03/14 10:14:35;;;;;;;2.45;2.30;;;;;;;;;;5039899;28;20081;-92
2023/03/14 10:17:09;;;;;;;5.03;4.80;;;;;;;;;;5032636;28;20254;-91
2023/03/14 10:19:36;;;;;;;3.78;3.58;;;;;;;;;;5033058;28;20057;-91
2023/03/14 10:22:03;;;;;;;4.38;4.15;;;;;;;;;;5033184;28;20111;-91
2023/03/14 10:24:30;;;;;;;7.03;6.60;;;;;;;;;;5032986;28;20132;-93
2023/03/14 10:27:01;;;;;;;5.05;4.85;;;;;;;;;;5032845;28;20049;-91
2023/03/14 10:29:29;;;;;;;6.78;6.47;;;;;;;;;;5033290;28;20103;-91
2023/03/14 10:31:58;;;;;;;4.93;4.70;;;;;;;;;;5036206;28;20049;-89
2023/03/14 10:34:26;;;;;;;5.05;4.85;;;;;;;;;;5048443;28;20045;-92
2023/03/14 10:36:56;;;;;;;4.28;3.97;;;;;;;;;;5058411;28;20080;-91
2023/03/14 10:39:25;;;;;;;5.32;5.10;;;;;;;;;;5045862;28;20049;-90
2023/03/14 10:41:53;;;;;;;5.18;4.95;;;;;;;;;;5036896;28;20053;-91
2023/03/14 10:44:22;;;;;;;3.88;3.65;;;;;;;;;;5035813;28;20417;-89
2023/03/14 10:46:56;;;;;;;4.10;3.88;;;;;;;;;;5035830;28;20050;-89
2023/03/14 10:49:27;;;;;;;4.95;4.72;;;;;;;;;;5046001;28;20049;-88
2023/03/14 10:51:54;;;;;;;4.85;4.55;;;;;;;;;;5055694;28;20079;-88
2023/03/14 10:54:21;;;;;;;6.10;5.70;;;;;;;;;;5049512;28;20042;-88
2023/03/14 10:56:56;;;;;;;6.25;5.97;;;;;;;;;;5040932;28;20046;-89
2023/03/14 10:59:23;;;;;;;7.40;7.00;;;;;;;;;;5039485;28;20053;-89
2023/03/14 11:01:54;;;;;;;9.15;8.75;;;;;;;;;;5039569;28;20054;-90
2023/03/14 11:04:31;;;;;;;7.65;7.15;;;;;;;;;;5039208;28;20096;-88
2023/03/14 11:07:02;;;;;;;9.45;8.95;;;;;;;;;;5040708;28;20144;-89
2023/03/14 11:09:33;;;;;;;8.88;8.48;;;;;;;;;;5048658;28;20053;-89
2023/03/14 11:11:59;;;;;;;;;;;;;;;;;;5059541;28;20112;-89
2023/03/14 11:14:29;;;;;;;8.15;7.85;;;;;;;;;;5051345;28;19984;-89
2023/03/14 11:16:59;;;;;;;6.43;6.03;;;;;;;;;;5040482;28;20049;-89
2023/03/14 11:19:34;;;;;;;6.47;6.10;;;;;;;;;;5049411;28;20106;-90
2023/03/14 11:22:02;;;;;;;6.53;6.22;;;;;;;;;;5061595;28;20061;-90
2023/03/14 11:24:33;;;;;;;7.15;6.82;;;;;;;;;;5060930;28;20049;-90
2023/03/14 11:27:03;;;;;;;6.72;6.40;;;;;;;;;;5063365;28;20106;-89
2023/03/14 11:29:33;;;;;;;6.60;6.28;;;;;;;;;;5054093;28;20049;-89
2023/03/14 11:32:01;;;;;;;6.85;6.53;;;;;;;;;;5047419;28;20065;-89
2023/03/14 11:34:29;;;;;;;9.20;8.77;;;;;;;;;;5048911;28;20045;-90
2023/03/14 11:37:00;;;;;;;6.45;6.13;;;;;;;;;;5063400;28;20049;-90
2023/03/14 11:39:29;;;;;;;9.25;8.85;;;;;;;;;;5053507;28;20064;-89
2023/03/14 11:41:58;;;;;;;7.80;7.40;;;;;;;;;;5042355;28;20111;-90
2023/03/14 11:44:28;;;;;;;6.45;6.15;;;;;;;;;;5043391;28;20049;-90
2023/03/14 11:46:57;;;;;;;6.20;5.90;;;;;;;;;;5042765;28;20103;-90
2023/03/14 11:49:27;;;;;;;5.82;5.43;;;;;;;;;;5042690;28;20049;-90
2023/03/14 11:51:53;;;;;;;;;;;;;;;;;;5042438;28;20111;-89
2023/03/14 11:54:27;;;;;;;5.47;5.25;;;;;;;;;;5047236;28;19943;-90
2023/03/14 11:56:55;;;;;;;5.75;5.38;;;;;;;;;;5063031;28;20045;-90
2023/03/14 11:59:24;;;;;;;7.70;6.30;;;;;;;;;;5058848;28;20053;-90
2023/03/14 12:01:53;;;;;;;8.05;7.72;;;;;;;;;;5044765;28;20127;-90
2023/03/14 12:04:23;;;;;;;7.18;6.65;;;;;;;;;;5043795;28;20053;-89
2023/03/14 12:06:50;;;;;;;6.25;6.03;;;;;;;;;;5043765;28;20049;-91
2023/03/14 12:09:17;;;;;;;7.70;7.20;;;;;;;;;;5041690;28;20147;-91
2023/03/14 12:11:47;;;;;;;7.20;6.82;;;;;;;;;;5042536;28;20425;-90
2023/03/14 12:14:21;;;;;;;4.70;4.47;;;;;;;;;;5045829;28;20045;-91
2023/03/14 12:16:48;;;;;;;6.03;5.72;;;;;;;;;;5059081;28;20049;-90
2023/03/14 12:19:36;;;;;;;7.63;7.30;;;;;;;;;;5059282;28;20132;-90
2023/03/14 12:22:08;;;;;;;4.75;4.45;;;;;;;;;;5059478;28;20140;-90
2023/03/14 12:24:36;;;;;;;5.68;5.35;;;;;;;;;;5052694;28;20049;-90
2023/03/14 12:27:05;;;;;;;5.53;5.25;;;;;;;;;;5039252;28;20570;-90
2023/03/14 12:29:32;;;;;;;5.53;5.18;;;;;;;;;;5038686;28;20111;-90
2023/03/14 12:32:08;;;;;;;10.05;9.63;;;;;;;;;;5038743;28;20099;-91
2023/03/14 12:34:35;;;;;;;6.00;5.78;;;;;;;;;;5044181;28;20044;-90
2023/03/14 12:37:15;;;;;;;7.13;6.72;;;;;;;;;;5059201;28;20072;-90
2023/03/14 12:39:46;;;;;;;7.60;7.30;;;;;;;;;;5052384;28;20050;-90
2023/03/14 12:42:15;;;;;;;7.63;7.30;;;;;;;;;;5038581;28;20053;-89
2023/03/14 12:44:43;;;;;;;4.80;4.57;;;;;;;;;;5038694;28;20058;-90
2023/03/14 12:47:43;;;;;;;6.47;6.25;;;;;;;;;;5038092;28;20045;-90
2023/03/14 12:50:15;;;;;;;5.95;5.70;;;;;;;;;;5038014;28;20049;-90
2023/03/14 12:52:45;;;;;;;4.90;4.70;;;;;;;;;;5039386;28;20116;-89
2023/03/14 12:55:15;;;;;;;5.90;5.65;;;;;;;;;;5039977;28;20053;-90
2023/03/14 12:57:46;;;;;;;10.15;9.63;;;;;;;;;;5039022;28;20057;-91
2023/03/14 13:00:12;;;;;;;;;;;;;;;;;;5039930;28;20123;-90
2023/03/14 13:02:40;;;;;;;6.05;5.80;;;;;;;;;;5039648;28;19928;-90
2023/03/14 13:05:11;;;;;;;14.05;13.55;;;;;;;;;;5047887;28;20088;-90
2023/03/14 13:07:38;;;;;;;;;;;;;;;;;;5058997;28;20719;-90
2023/03/14 13:10:16;;;;;;;6.78;6.38;;;;;;;;;;5057807;28;20265;-89
2023/03/14 13:12:47;;;;;;;7.53;7.15;;;;;;;;;;5059166;28;20056;-90
2023/03/14 13:15:22;;;;;;;8.05;6.50;;;;;;;;;;5058037;28;20040;-91
2023/03/14 13:17:49;;;;;;;7.00;6.70;;;;;;;;;;5058416;28;20482;-91
2023/03/14 13:20:18;;;;;;;3.47;3.25;;;;;;;;;;5056715;28;20045;-90
2023/03/14 13:22:47;;;;;;;6.93;6.63;;;;;;;;;;5057539;28;20049;-91
2023/03/14 13:25:13;;;;;;;10.27;9.77;;;;;;;;;;5049330;28;20680;-91
2023/03/14 13:27:41;;;;;;;8.38;7.97;;;;;;;;;;5036438;28;20107;-92
2023/03/14 13:30:22;;;;;;;10.27;9.75;;;;;;;;;;5034655;28;20111;-89
2023/03/14 13:32:49;;;;;;;3.60;3.42;;;;;;;;;;5036194;28;20053;-90
2023/03/14 13:35:16;;;;;;;7.93;7.60;;;;;;;;;;5036294;28;20053;-91
2023/03/14 13:37:43;;;;;;;8.68;8.27;;;;;;;;;;5060179;28;20467;-90
2023/03/14 13:40:19;;;;;;;6.72;6.43;;;;;;;;;;5047082;28;20102;-90
2023/03/14 13:42:45;;;;;;;10.13;9.55;;;;;;;;;;5055637;28;20103;-91
2023/03/14 13:45:13;;;;;;;7.60;7.28;;;;;;;;;;5069825;28;20052;-89
2023/03/14 13:47:42;;;;;;;8.30;7.72;;;;;;;;;;5060692;28;20095;-92
2023/03/14 13:50:14;;;;;;;4.88;4.65;;;;;;;;;;5071211;28;20136;-90
2023/03/14 13:52:41;;;;;;;7.20;6.90;;;;;;;;;;5076419;28;20056;-90
2023/03/14 13:55:15;;;;;;;8.80;8.40;;;;;;;;;;5056589;28;20107;-90
2023/03/14 13:57:46;;;;;;;9.23;8.82;;;;;;;;;;5065575;28;20048;-90
2023/03/14 14:00:18;;;;;;;6.75;6.43;;;;;;;;;;5067385;28;20053;-89
2023/03/14 14:02:47;;;;;;;8.70;8.30;;;;;;;;;;5067360;28;20095;-90
2023/03/14 14:05:13;;;;;;;7.93;7.53;;;;;;;;;;5059627;28;20519;-89
2023/03/14 14:07:41;;;;;;;6.57;6.25;;;;;;;;;;5067700;28;20053;-89
2023/03/14 14:10:11;;;;;;;9.63;9.20;;;;;;;;;;5054736;28;20546;-90
2023/03/14 14:12:40;;;;;;;7.97;7.47;;;;;;;;;;5066238;28;20052;-89
2023/03/14 14:15:10;;;;;;;7.82;7.28;;;;;;;;;;5065855;28;20467;-89
2023/03/14 14:17:38;;;;;;;10.07;9.68;;;;;;;;;;5064912;28;20136;-89
2023/03/14 14:20:08;;;;;;;6.68;6.30;;;;;;;;;;5058042;28;20045;-90
2023/03/14 14:22:35;;;;;;;7.18;6.78;;;;;;;;;;5046944;28;20045;-90
2023/03/14 14:25:01;;;;;;;6.35;5.97;;;;;;;;;;5060540;28;20052;-90
2023/03/14 14:27:31;;;;;;;7.60;7.20;;;;;;;;;;5064292;28;20052;-90
2023/03/14 14:29:59;;;;;;;6.72;6.43;;;;;;;;;;5056777;28;20056;-91
2023/03/14 14:32:25;;;;;;;7.40;7.10;;;;;;;;;;5063397;28;20045;-91
2023/03/14 14:34:57;;;;;;;8.05;7.65;;;;;;;;;;5059985;28;20049;-90
2023/03/14 14:37:26;;;;;;;8.07;7.57;;;;;;;;;;5059795;28;20045;-91
2023/03/14 14:39:53;;;;;;;5.88;5.65;;;;;;;;;;5066030;28;20053;-90
2023/03/14 14:42:22;;;;;;;7.43;6.97;;;;;;;;;;5066620;28;20084;-91
2023/03/14 14:44:51;;;;;;;6.13;5.80;;;;;;;;;;5063111;28;20087;-90
2023/03/14 14:47:19;;;;;;;7.80;7.40;;;;;;;;;;5066915;28;20106;-89